createdAt,value
2022-12-12T00:00:46.410Z,100456.97
2022-12-12T00:03:13.878Z,100453.16
2022-12-12T00:05:41.816Z,100454.13
2022-12-12T00:08:09.182Z,100455.75
2022-12-12T00:10:36.554Z,100457.38
2022-12-12T00:13:04.049Z,100458.84
2022-12-12T00:15:31.363Z,100457.38
2022-12-12T00:17:58.738Z,100453.97
2022-12-12T00:20:25.924Z,100458.78
2022-12-12T00:22:53.354Z,100448.22
2022-12-12T00:25:20.743Z,100456.75
2022-12-12T00:27:48.009Z,100455.13
2022-12-12T00:30:15.453Z,100457.56
2022-12-12T00:32:42.809Z,100458.66
2022-12-12T00:35:10.563Z,100452.22
2022-12-12T00:37:38.298Z,100451.44
2022-12-12T00:40:06.460Z,100461.97
2022-12-12T00:42:33.710Z,100464.47
2022-12-12T00:45:00.959Z,100472.03
2022-12-12T00:47:28.370Z,100475.16
2022-12-12T00:49:55.593Z,100467.19
2022-12-12T00:52:22.838Z,100464.81
2022-12-12T00:54:50.076Z,100458.59
2022-12-12T00:57:17.924Z,100464.47
2022-12-12T00:59:45.271Z,100467.88
2022-12-12T01:02:12.592Z,100469.22
2022-12-12T01:04:39.950Z,100475.69
2022-12-12T01:07:07.386Z,100462.41
2022-12-12T01:09:34.915Z,100464.19
2022-12-12T01:12:02.202Z,100467.59
2022-12-12T01:14:29.434Z,100475.06
2022-12-12T01:16:56.730Z,100458.38
2022-12-12T01:19:23.972Z,100460.91
2022-12-12T01:21:51.312Z,100457.09
2022-12-12T01:24:18.582Z,100464.94
2022-12-12T01:26:45.851Z,100465.91
2022-12-12T01:29:13.138Z,100470.28
2022-12-12T01:31:40.429Z,100471.50
2022-12-12T01:34:08.143Z,100482.56
2022-12-12T01:36:35.519Z,100483.00
2022-12-12T01:39:03.444Z,100486.63
2022-12-12T01:41:30.755Z,100484.09
2022-12-12T01:44:01.922Z,100488.25
2022-12-12T01:46:39.553Z,100480.38
2022-12-12T01:49:15.940Z,100470.69
2022-12-12T01:51:44.255Z,100472.50
2022-12-12T01:54:16.025Z,100487.34
2022-12-12T01:56:44.906Z,100483.00
2022-12-12T01:59:15.449Z,100476.50
2022-12-12T02:01:43.084Z,100476.13
2022-12-12T02:04:11.174Z,100466.63
2022-12-12T02:06:39.396Z,100470.31
2022-12-12T02:09:10.300Z,100476.75
2022-12-12T02:11:43.896Z,100476.75
2022-12-12T02:14:11.988Z,100475.44
2022-12-12T02:16:55.563Z,100474.59
2022-12-12T02:19:54.497Z,100470.75
2022-12-12T02:22:36.976Z,100476.91
2022-12-12T02:25:13.344Z,100481.41
2022-12-12T02:28:08.134Z,100484.13
2022-12-12T02:30:45.720Z,100472.56
2022-12-12T02:33:28.776Z,100466.03
2022-12-12T02:36:13.579Z,100477.31
2022-12-12T02:39:09.779Z,100480.16
2022-12-12T02:41:56.541Z,100481.03
2022-12-12T02:44:38.763Z,100486.88
2022-12-12T02:47:19.314Z,100488.81
2022-12-12T02:50:16.074Z,100482.81
2022-12-12T02:52:44.001Z,100486.47
2022-12-12T02:55:12.049Z,100482.25
2022-12-12T02:57:41.804Z,100480.56
2022-12-12T03:00:14.998Z,100476.09
2022-12-12T03:03:14.648Z,100474.28
2022-12-12T03:06:25.010Z,100466.59
2022-12-12T03:09:14.195Z,100469.09
2022-12-12T03:11:53.629Z,100463.00
2022-12-12T03:14:20.777Z,100453.50
2022-12-12T03:16:55.614Z,100468.34
2022-12-12T03:19:27.296Z,100464.44
2022-12-12T03:22:29.948Z,100455.72
2022-12-12T03:25:12.531Z,100454.41
2022-12-12T03:28:10.536Z,100457.03
2022-12-12T03:30:41.596Z,100459.72
2022-12-12T03:33:18.747Z,100465.53
2022-12-12T03:35:59.875Z,100468.38
2022-12-12T03:38:32.309Z,100468.91
2022-12-12T03:41:03.221Z,100473.50
2022-12-12T03:43:33.419Z,100476.41
2022-12-12T03:46:06.527Z,100478.34
2022-12-12T03:48:37.385Z,100479.19
2022-12-12T03:51:08.629Z,100481.38
2022-12-12T03:53:44.043Z,100486.19
2022-12-12T03:56:24.033Z,100488.69
2022-12-12T03:58:55.968Z,100493.16
2022-12-12T04:01:26.800Z,100484.25
2022-12-12T04:04:09.939Z,100489.28
2022-12-12T04:06:49.246Z,100492.13
2022-12-12T04:09:37.693Z,100497.16
2022-12-12T04:12:25.542Z,100496.22
2022-12-12T04:15:27.007Z,100488.44
2022-12-12T04:18:16.793Z,100498.69
2022-12-12T04:21:02.706Z,100500.88
2022-12-12T04:23:47.770Z,100500.16
2022-12-12T04:26:40.931Z,100504.00
2022-12-12T04:29:26.897Z,100506.38
2022-12-12T04:32:08.320Z,100509.16
2022-12-12T04:34:49.498Z,100506.53
2022-12-12T04:37:20.090Z,100506.38
2022-12-12T04:39:49.841Z,100517.97
2022-12-12T04:42:21.615Z,100505.16
2022-12-12T04:44:52.321Z,100499.06
2022-12-12T04:47:21.154Z,100502.66
2022-12-12T04:49:50.026Z,100504.13
2022-12-12T04:52:18.987Z,100499.53
2022-12-12T04:54:55.854Z,100497.56
2022-12-12T04:57:47.630Z,100497.59
2022-12-12T05:00:15.395Z,100492.69
2022-12-12T05:02:51.387Z,100499.09
2022-12-12T05:05:25.631Z,100500.47
2022-12-12T05:08:08.023Z,100497.72
2022-12-12T05:10:42.697Z,100501.28
2022-12-12T05:13:18.225Z,100496.75
2022-12-12T05:15:46.965Z,100498.81
2022-12-12T05:18:14.201Z,100508.31
2022-12-12T05:20:41.593Z,100509.78
2022-12-12T05:23:08.823Z,100499.59
2022-12-12T05:25:36.534Z,100502.53
2022-12-12T05:28:03.910Z,100503.38
2022-12-12T05:30:36.085Z,100502.38
2022-12-12T05:33:03.576Z,100496.44
2022-12-12T05:35:30.873Z,100485.31
2022-12-12T05:37:58.116Z,100494.41
2022-12-12T05:40:25.510Z,100496.09
2022-12-12T05:42:52.890Z,100495.31
2022-12-12T05:45:20.274Z,100496.56
2022-12-12T05:47:47.749Z,100482.09
2022-12-12T05:50:15.035Z,100491.59
2022-12-12T05:52:42.364Z,100490.69
2022-12-12T05:55:10.101Z,100488.66
2022-12-12T05:57:37.635Z,100503.31
2022-12-12T06:00:05.717Z,100504.00
2022-12-12T06:02:33.754Z,100502.97
2022-12-12T06:05:01.355Z,100502.69
2022-12-12T06:07:29.419Z,100506.25
2022-12-12T06:09:56.822Z,100502.34
2022-12-12T06:12:24.189Z,100496.72
2022-12-12T06:14:51.532Z,100502.41
2022-12-12T06:17:18.930Z,100500.66
2022-12-12T06:19:46.187Z,100499.09
2022-12-12T06:22:13.472Z,100500.75
2022-12-12T06:24:41.281Z,100517.56
2022-12-12T06:27:08.534Z,100510.16
2022-12-12T06:29:36.130Z,100509.06
2022-12-12T06:32:04.054Z,100517.81
2022-12-12T06:34:31.411Z,100509.56
2022-12-12T06:36:58.684Z,100516.84
2022-12-12T06:39:25.923Z,100519.59
2022-12-12T06:41:53.302Z,100508.50
2022-12-12T06:44:20.633Z,100507.66
2022-12-12T06:46:47.836Z,100504.94
2022-12-12T06:49:15.181Z,100508.28
2022-12-12T06:51:44.225Z,100519.41
2022-12-12T06:54:17.365Z,100519.00
2022-12-12T06:56:48.523Z,100520.50
2022-12-12T06:59:16.642Z,100515.69
2022-12-12T07:01:44.697Z,100499.44
2022-12-12T07:04:12.890Z,100491.84
2022-12-12T07:06:40.374Z,100490.88
2022-12-12T07:09:08.287Z,100498.22
2022-12-12T07:11:35.575Z,100504.75
2022-12-12T07:14:05.560Z,100510.78
2022-12-12T07:16:32.964Z,100519.16
2022-12-12T07:19:00.279Z,100523.75
2022-12-12T07:21:27.468Z,100523.69
2022-12-12T07:23:56.930Z,100527.09
2022-12-12T07:26:24.722Z,100528.56
2022-12-12T07:28:52.207Z,100532.88
2022-12-12T07:31:22.536Z,100535.19
2022-12-12T07:33:50.105Z,100538.16
2022-12-12T07:36:17.677Z,100539.09
2022-12-12T07:38:45.236Z,100529.97
2022-12-12T07:41:15.912Z,100535.84
2022-12-12T07:43:45.099Z,100527.50
2022-12-12T07:46:16.808Z,100515.06
2022-12-12T07:48:44.803Z,100523.50
2022-12-12T07:51:12.614Z,100531.31
2022-12-12T07:53:40.379Z,100538.13
2022-12-12T07:56:09.681Z,100542.31
2022-12-12T07:58:37.332Z,100549.41
2022-12-12T08:01:14.363Z,100554.44
2022-12-12T08:03:43.862Z,100557.22
2022-12-12T08:06:11.875Z,100553.69
2022-12-12T08:08:39.446Z,100557.41
2022-12-12T08:11:08.519Z,100561.34
2022-12-12T08:13:36.717Z,100562.22
2022-12-12T08:16:05.498Z,100564.41
2022-12-12T08:18:33.377Z,100575.16
2022-12-12T08:21:00.756Z,100560.50
2022-12-12T08:23:28.051Z,100554.94
2022-12-12T08:25:55.338Z,100548.31
2022-12-12T08:28:22.680Z,100556.59
2022-12-12T08:30:50.858Z,100563.47
2022-12-12T08:33:18.762Z,100570.41
2022-12-12T08:35:46.058Z,100572.69
2022-12-12T08:38:13.776Z,100574.84
2022-12-12T08:40:41.808Z,100584.09
2022-12-12T08:43:10.089Z,100587.94
2022-12-12T08:45:38.381Z,100596.75
2022-12-12T08:48:07.228Z,100596.84
2022-12-12T08:50:34.694Z,100596.38
2022-12-12T08:53:02.079Z,100598.00
2022-12-12T08:55:30.458Z,100587.22
2022-12-12T08:57:57.702Z,100595.38
2022-12-12T09:00:25.085Z,100599.94
2022-12-12T09:02:52.525Z,100603.06
2022-12-12T09:05:19.896Z,100593.78
2022-12-12T09:07:47.354Z,100595.97
2022-12-12T09:10:14.678Z,100591.31
2022-12-12T09:12:42.333Z,100602.19
2022-12-12T09:15:10.169Z,100603.81
2022-12-12T09:17:37.928Z,100609.00
2022-12-12T09:20:06.103Z,100589.22
2022-12-12T09:22:33.392Z,100584.91
2022-12-12T09:25:00.689Z,100586.56
2022-12-12T09:27:27.927Z,100579.97
2022-12-12T09:29:55.170Z,100582.03
2022-12-12T09:32:24.720Z,100573.84
2022-12-12T09:34:52.385Z,100580.63
2022-12-12T09:37:19.780Z,100575.06
2022-12-12T09:39:47.212Z,100580.81
2022-12-12T09:42:26.729Z,100585.50
2022-12-12T09:44:56.517Z,100582.41
2022-12-12T09:47:29.890Z,100584.31
2022-12-12T09:50:02.493Z,100583.41
2022-12-12T09:52:36.885Z,100578.53
2022-12-12T09:55:20.325Z,100587.59
2022-12-12T09:57:57.107Z,100585.84
2022-12-12T10:00:24.539Z,100580.00
2022-12-12T10:02:57.841Z,100579.38
2022-12-12T10:05:34.107Z,100577.47
2022-12-12T10:08:22.928Z,100565.88
2022-12-12T10:10:56.523Z,100563.00
2022-12-12T10:13:26.073Z,100560.00
2022-12-12T10:16:00.030Z,100552.81
2022-12-12T10:18:43.737Z,100540.94
2022-12-12T10:21:27.162Z,100554.97
2022-12-12T10:24:18.913Z,100547.75
2022-12-12T10:26:46.215Z,100541.78
2022-12-12T10:29:18.215Z,100551.47
2022-12-12T10:32:09.837Z,100554.19
2022-12-12T10:34:59.387Z,100567.16
2022-12-12T10:37:52.003Z,100578.53
2022-12-12T10:40:34.695Z,100574.50
2022-12-12T10:43:14.040Z,100566.06
2022-12-12T10:45:47.027Z,100565.47
2022-12-12T10:48:14.497Z,100559.88
2022-12-12T10:50:48.949Z,100551.72
2022-12-12T10:53:16.440Z,100551.50
2022-12-12T10:55:53.557Z,100540.34
2022-12-12T10:58:28.729Z,100543.09
2022-12-12T11:01:04.709Z,100537.97
2022-12-12T11:03:37.571Z,100537.88
2022-12-12T11:06:08.250Z,100525.03
2022-12-12T11:08:36.791Z,100509.47
2022-12-12T11:11:06.831Z,100512.25
2022-12-12T11:13:45.538Z,100507.50
2022-12-12T11:16:19.283Z,100503.59
2022-12-12T11:19:00.612Z,100490.97
2022-12-12T11:21:29.092Z,100479.06
2022-12-12T11:23:57.656Z,100461.19
2022-12-12T11:26:27.116Z,100473.22
2022-12-12T11:29:10.085Z,100471.88
2022-12-12T11:31:37.579Z,100470.72
2022-12-12T11:34:06.305Z,100471.94
2022-12-12T11:36:41.292Z,100469.78
2022-12-12T11:39:37.827Z,100473.00
2022-12-12T11:42:06.362Z,100463.78
2022-12-12T11:44:38.443Z,100463.78
2022-12-12T11:47:18.115Z,100461.34
2022-12-12T11:49:54.470Z,100454.66
2022-12-12T11:52:28.794Z,100462.53
2022-12-12T11:54:56.761Z,100459.56
2022-12-12T11:57:23.931Z,100473.78
2022-12-12T12:00:03.479Z,100476.72
2022-12-12T12:02:56.630Z,100463.41
2022-12-12T12:06:10.557Z,100453.13
2022-12-12T12:09:00.046Z,100449.06
2022-12-12T12:11:35.578Z,100448.84
2022-12-12T12:14:21.790Z,100436.31
2022-12-12T12:16:56.027Z,100438.59
2022-12-12T12:19:52.095Z,100440.09
2022-12-12T12:22:24.802Z,100443.63
2022-12-12T12:25:14.206Z,100441.06
2022-12-12T12:28:07.296Z,100426.53
2022-12-12T12:30:54.730Z,100428.50
2022-12-12T12:33:37.216Z,100423.63
2022-12-12T12:36:24.192Z,100415.94
2022-12-12T12:39:03.605Z,100411.56
2022-12-12T12:41:37.976Z,100399.94
2022-12-12T12:44:26.815Z,100406.72
2022-12-12T12:47:12.645Z,100399.34
2022-12-12T12:49:50.462Z,100391.50
2022-12-12T12:52:34.968Z,100389.75
2022-12-12T12:55:02.696Z,100396.16
2022-12-12T12:57:44.920Z,100397.56
2022-12-12T13:00:18.179Z,100400.13
2022-12-12T13:03:01.276Z,100396.19
2022-12-12T13:05:33.647Z,100401.84
2022-12-12T13:08:25.749Z,100398.88
2022-12-12T13:11:08.966Z,100391.75
2022-12-12T13:13:39.858Z,100391.91
2022-12-12T13:16:16.205Z,100389.91
2022-12-12T13:18:46.254Z,100391.09
2022-12-12T13:21:35.026Z,100371.25
2022-12-12T13:24:15.097Z,100374.78
2022-12-12T13:27:21.001Z,100370.97
2022-12-12T13:29:48.431Z,100374.66
2022-12-12T13:32:45.136Z,100364.66
2022-12-12T13:35:18.691Z,100355.50
2022-12-12T13:37:52.053Z,100358.47
2022-12-12T13:40:42.598Z,100347.09
2022-12-12T13:43:38.679Z,100337.34
2022-12-12T13:46:35.238Z,100342.75
2022-12-12T13:49:12.458Z,100345.16
2022-12-12T13:52:00.565Z,100341.59
2022-12-12T13:54:27.937Z,100350.78
2022-12-12T13:56:57.973Z,100344.44
2022-12-12T13:59:25.485Z,100350.19
2022-12-12T14:02:03.330Z,100353.00
2022-12-12T14:04:32.727Z,100343.59
2022-12-12T14:07:18.905Z,100335.72
2022-12-12T14:09:49.795Z,100342.94
2022-12-12T14:12:24.845Z,100343.56
2022-12-12T14:15:03.829Z,100352.78
2022-12-12T14:17:40.115Z,100351.47
2022-12-12T14:20:39.577Z,100353.16
2022-12-12T14:23:23.701Z,100356.84
2022-12-12T14:25:51.490Z,100345.94
2022-12-12T14:28:36.915Z,100355.06
2022-12-12T14:31:24.486Z,100355.91
2022-12-12T14:33:58.305Z,100355.19
2022-12-12T14:36:49.800Z,100347.97
2022-12-12T14:39:31.413Z,100354.09
2022-12-12T14:41:59.030Z,100352.78
2022-12-12T14:44:36.469Z,100355.25
2022-12-12T14:47:09.717Z,100353.53
2022-12-12T14:49:36.970Z,100358.09
2022-12-12T14:52:04.372Z,100358.19
2022-12-12T14:54:31.791Z,100363.13
2022-12-12T14:56:59.678Z,100362.84
2022-12-12T14:59:37.184Z,100358.06
2022-12-12T15:02:25.796Z,100361.94
2022-12-12T15:05:04.157Z,100361.16
2022-12-12T15:07:34.756Z,100361.31
2022-12-12T15:10:02.071Z,100366.47
2022-12-12T15:12:34.780Z,100370.09
2022-12-12T15:15:02.336Z,100368.50
2022-12-12T15:17:46.136Z,100373.75
2022-12-12T15:20:25.044Z,100382.72
2022-12-12T15:23:00.993Z,100379.41
2022-12-12T15:25:30.733Z,100373.03
2022-12-12T15:27:58.504Z,100375.31
2022-12-12T15:30:36.429Z,100366.69
2022-12-12T15:33:05.895Z,100370.88
2022-12-12T15:35:33.500Z,100381.47
2022-12-12T15:38:02.724Z,100372.13
2022-12-12T15:40:31.935Z,100374.28
2022-12-12T15:43:01.754Z,100371.94
2022-12-12T15:45:30.680Z,100366.47
2022-12-12T15:47:58.508Z,100370.16
2022-12-12T15:50:29.471Z,100359.81
2022-12-12T15:53:02.836Z,100365.94
2022-12-12T15:55:30.376Z,100358.50
2022-12-12T15:57:57.905Z,100357.78
2022-12-12T16:00:30.319Z,100366.69
2022-12-12T16:03:24.195Z,100361.41
2022-12-12T16:06:13.893Z,100357.81
2022-12-12T16:08:44.499Z,100365.41
2022-12-12T16:11:31.910Z,100353.59
2022-12-12T16:13:59.911Z,100352.69
2022-12-12T16:16:40.946Z,100352.81
2022-12-12T16:19:33.565Z,100347.41
2022-12-12T16:22:16.218Z,100343.25
2022-12-12T16:24:52.434Z,100350.44
2022-12-12T16:27:20.495Z,100348.31
2022-12-12T16:29:47.834Z,100349.53
2022-12-12T16:32:17.728Z,100348.66
2022-12-12T16:34:48.080Z,100339.97
2022-12-12T16:37:17.868Z,100341.31
2022-12-12T16:39:45.371Z,100340.19
2022-12-12T16:42:17.124Z,100347.19
2022-12-12T16:44:45.975Z,100350.09
2022-12-12T16:47:18.967Z,100356.09
2022-12-12T16:49:46.582Z,100353.38
2022-12-12T16:52:19.001Z,100352.66
2022-12-12T16:54:53.136Z,100347.69
2022-12-12T16:57:22.013Z,100339.19
2022-12-12T16:59:49.328Z,100334.06
2022-12-12T17:02:20.753Z,100333.50
2022-12-12T17:04:49.286Z,100326.06
2022-12-12T17:07:16.772Z,100330.47
2022-12-12T17:09:44.191Z,100333.97
2022-12-12T17:12:13.051Z,100324.50
2022-12-12T17:14:40.423Z,100325.03
2022-12-12T17:17:07.854Z,100323.59
2022-12-12T17:19:35.087Z,100324.72
2022-12-12T17:22:02.626Z,100329.56
2022-12-12T17:24:29.992Z,100329.25
2022-12-12T17:26:58.527Z,100322.00
2022-12-12T17:29:26.015Z,100323.06
2022-12-12T17:31:53.391Z,100324.81
2022-12-12T17:34:20.815Z,100325.97
2022-12-12T17:36:48.654Z,100319.03
2022-12-12T17:39:16.018Z,100319.91
2022-12-12T17:41:43.287Z,100320.31
2022-12-12T17:44:10.578Z,100320.72
2022-12-12T17:46:38.111Z,100321.56
2022-12-12T17:49:05.312Z,100313.34
2022-12-12T17:51:32.799Z,100304.47
2022-12-12T17:54:00.621Z,100315.59
2022-12-12T17:56:27.913Z,100309.34
2022-12-12T17:58:55.348Z,100310.34
2022-12-12T18:01:25.866Z,100300.16
2022-12-12T18:03:53.787Z,100311.22
2022-12-12T18:06:22.252Z,100309.38
2022-12-12T18:08:50.119Z,100294.00
2022-12-12T18:11:19.927Z,100299.00
2022-12-12T18:13:48.653Z,100306.25
2022-12-12T18:16:16.635Z,100308.84
2022-12-12T18:18:44.694Z,100294.94
2022-12-12T18:21:23.616Z,100297.31
2022-12-12T18:24:02.938Z,100290.38
2022-12-12T18:26:30.360Z,100296.00
2022-12-12T18:29:03.244Z,100286.31
2022-12-12T18:31:30.685Z,100287.06
2022-12-12T18:33:58.144Z,100281.44
2022-12-12T18:36:27.868Z,100289.19
2022-12-12T18:38:55.516Z,100282.91
2022-12-12T18:41:23.195Z,100277.84
2022-12-12T18:43:50.556Z,100270.50
2022-12-12T18:46:21.224Z,100267.16
2022-12-12T18:48:48.736Z,100270.38
2022-12-12T18:51:34.015Z,100265.34
2022-12-12T18:54:03.189Z,100268.50
2022-12-12T18:56:31.382Z,100273.34
2022-12-12T18:59:00.972Z,100283.38
2022-12-12T19:01:31.762Z,100273.72
2022-12-12T19:04:05.811Z,100273.66
2022-12-12T19:06:37.417Z,100278.41
2022-12-12T19:09:08.340Z,100279.28
2022-12-12T19:11:43.270Z,100277.63
2022-12-12T19:14:14.318Z,100276.41
2022-12-12T19:16:45.703Z,100275.22
2022-12-12T19:19:13.942Z,100291.13
2022-12-12T19:21:42.864Z,100290.72
2022-12-12T19:24:12.425Z,100281.28
2022-12-12T19:26:40.908Z,100276.19
2022-12-12T19:29:16.350Z,100275.44
2022-12-12T19:31:44.875Z,100277.16
2022-12-12T19:34:13.691Z,100279.84
2022-12-12T19:36:41.227Z,100270.81
2022-12-12T19:39:09.063Z,100277.50
2022-12-12T19:41:36.438Z,100281.94
2022-12-12T19:44:05.759Z,100274.09
2022-12-12T19:46:33.213Z,100287.31
2022-12-12T19:49:03.098Z,100273.56
2022-12-12T19:51:32.652Z,100271.44
2022-12-12T19:54:00.650Z,100275.06
2022-12-12T19:56:33.829Z,100278.94
2022-12-12T19:59:01.820Z,100274.84
2022-12-12T20:01:34.549Z,100275.97
2022-12-12T20:04:07.884Z,100277.81
2022-12-12T20:06:41.397Z,100280.56
2022-12-12T20:09:09.670Z,100275.75
2022-12-12T20:11:37.956Z,100266.97
2022-12-12T20:14:11.275Z,100270.69
2022-12-12T20:16:39.033Z,100266.69
2022-12-12T20:19:06.473Z,100267.56
2022-12-12T20:24:26.121Z,100264.63
2022-12-12T20:26:55.240Z,100258.53
2022-12-12T20:29:23.631Z,100253.06
2022-12-12T20:31:51.442Z,100265.44
2022-12-12T20:34:21.973Z,100271.25
2022-12-12T20:36:55.075Z,100266.97
2022-12-12T20:39:32.013Z,100267.53
2022-12-12T20:42:02.548Z,100264.50
2022-12-12T20:44:30.207Z,100260.75
2022-12-12T20:47:02.311Z,100257.06
2022-12-12T20:49:30.283Z,100256.63
2022-12-12T20:51:58.796Z,100251.13
2022-12-12T20:54:30.504Z,100242.56
2022-12-12T20:56:58.775Z,100255.22
2022-12-12T20:59:30.133Z,100256.16
2022-12-12T21:01:57.856Z,100245.97
2022-12-12T21:04:32.278Z,100242.78
2022-12-12T21:07:09.486Z,100235.75
2022-12-12T21:09:36.955Z,100234.44
2022-12-12T21:12:04.694Z,100235.91
2022-12-12T21:14:35.047Z,100236.94
2022-12-12T21:17:02.906Z,100232.63
2022-12-12T21:19:30.122Z,100228.50
2022-12-12T21:21:57.484Z,100225.50
2022-12-12T21:24:24.805Z,100224.47
2022-12-12T21:26:52.488Z,100221.91
2022-12-12T21:29:20.091Z,100221.16
2022-12-12T21:31:51.722Z,100226.56
2022-12-12T21:34:22.294Z,100216.38
2022-12-12T21:36:50.488Z,100213.00
2022-12-12T21:39:17.859Z,100216.13
2022-12-12T21:41:45.381Z,100219.63
2022-12-12T21:44:13.166Z,100213.69
2022-12-12T21:46:43.221Z,100217.78
2022-12-12T21:49:26.547Z,100204.94
2022-12-12T21:52:00.558Z,100205.06
2022-12-12T21:54:31.468Z,100207.06
2022-12-12T21:56:59.905Z,100196.81
2022-12-12T21:59:27.646Z,100189.53
2022-12-12T22:01:56.674Z,100184.22
2022-12-12T22:04:24.536Z,100191.56
2022-12-12T22:06:52.036Z,100170.97
2022-12-12T22:09:19.378Z,100176.97
2022-12-12T22:11:51.576Z,100171.88
2022-12-12T22:14:21.130Z,100177.00
2022-12-12T22:16:48.948Z,100177.50
2022-12-12T22:19:17.193Z,100177.00
2022-12-12T22:21:51.546Z,100177.63
2022-12-12T22:24:19.294Z,100176.28
2022-12-12T22:26:49.293Z,100172.00
2022-12-12T22:29:19.236Z,100177.25
2022-12-12T22:31:49.974Z,100177.06
2022-12-12T22:34:23.541Z,100172.03
2022-12-12T22:36:52.361Z,100170.91
2022-12-12T22:39:23.562Z,100172.91
2022-12-12T22:41:51.312Z,100172.84
2022-12-12T22:44:20.688Z,100176.44
2022-12-12T22:46:49.651Z,100178.13
2022-12-12T22:49:20.185Z,100174.19
2022-12-12T22:51:48.457Z,100175.44
2022-12-12T22:54:18.862Z,100175.75
2022-12-12T22:56:46.438Z,100180.44
2022-12-12T22:59:14.269Z,100184.03
2022-12-12T23:01:42.055Z,100181.00
2022-12-12T23:04:12.884Z,100180.63
2022-12-12T23:06:40.185Z,100170.41
2022-12-12T23:09:14.433Z,100172.38
2022-12-12T23:11:42.642Z,100181.41
2022-12-12T23:14:15.128Z,100177.00
2022-12-12T23:16:43.542Z,100167.59
2022-12-12T23:19:13.347Z,100161.59
2022-12-12T23:21:40.805Z,100166.19
2022-12-12T23:24:08.243Z,100161.59
2022-12-12T23:26:36.703Z,100157.03
2022-12-12T23:29:05.377Z,100159.59
2022-12-12T23:31:34.374Z,100161.78
2022-12-12T23:34:04.531Z,100168.00
2022-12-12T23:36:32.374Z,100165.47
2022-12-12T23:39:06.241Z,100168.88
2022-12-12T23:41:35.053Z,100174.41
2022-12-12T23:44:03.001Z,100181.59
2022-12-12T23:46:33.253Z,100176.22
2022-12-12T23:49:01.724Z,100177.81
2022-12-12T23:51:30.964Z,100170.00
2022-12-12T23:54:00.053Z,100170.78
2022-12-12T23:56:28.178Z,100172.75
2022-12-12T23:58:56.918Z,100167.00
